createdAt,value
2022-12-28T00:02:01.790Z,100705.11
2022-12-28T00:04:34.187Z,100703.55
2022-12-28T00:07:06.567Z,100701.00
2022-12-28T00:09:39.086Z,100698.13
2022-12-28T00:12:11.708Z,100697.64
2022-12-28T00:14:46.098Z,100692.59
2022-12-28T00:17:18.894Z,100694.15
2022-12-28T00:19:51.369Z,100692.21
2022-12-28T00:22:23.928Z,100695.84
2022-12-28T00:24:56.320Z,100700.56
2022-12-28T00:27:28.669Z,100698.38
2022-12-28T00:30:01.045Z,100703.29
2022-12-28T00:32:34.418Z,100702.98
2022-12-28T00:35:07.907Z,100700.69
2022-12-28T00:37:40.386Z,100699.50
2022-12-28T00:40:18.924Z,100703.03
2022-12-28T00:42:54.604Z,100702.77
2022-12-28T00:45:26.999Z,100706.48
2022-12-28T00:47:59.401Z,100707.06
2022-12-28T00:50:31.954Z,100708.71
2022-12-28T00:53:04.582Z,100704.88
2022-12-28T00:55:37.528Z,100703.39
2022-12-28T00:58:11.714Z,100706.02
2022-12-28T01:00:44.212Z,100704.16
2022-12-28T01:03:16.653Z,100704.89
2022-12-28T01:05:49.238Z,100695.73
2022-12-28T01:08:21.739Z,100699.72
2022-12-28T01:10:54.065Z,100695.83
2022-12-28T01:13:26.486Z,100695.20
2022-12-28T01:15:58.857Z,100695.79
2022-12-28T01:18:31.717Z,100699.04
2022-12-28T01:21:11.539Z,100695.16
2022-12-28T01:23:44.321Z,100697.35
2022-12-28T01:26:17.264Z,100694.02
2022-12-28T01:28:50.783Z,100690.88
2022-12-28T01:31:23.868Z,100691.27
2022-12-28T01:33:56.561Z,100688.37
2022-12-28T01:36:35.043Z,100688.86
2022-12-28T01:39:08.222Z,100690.43
2022-12-28T01:41:42.865Z,100684.44
2022-12-28T01:44:51.342Z,100678.11
2022-12-28T01:47:28.263Z,100677.14
2022-12-28T01:50:08.904Z,100673.44
2022-12-28T01:52:44.769Z,100674.64
2022-12-28T01:55:20.079Z,100678.79
2022-12-28T01:57:57.084Z,100677.89
2022-12-28T02:00:30.354Z,100675.30
2022-12-28T02:03:07.278Z,100675.29
2022-12-28T02:05:42.793Z,100675.34
2022-12-28T02:08:23.474Z,100671.41
2022-12-28T02:10:57.314Z,100673.50
2022-12-28T02:13:30.061Z,100671.13
2022-12-28T02:16:02.958Z,100669.17
2022-12-28T02:18:35.565Z,100666.94
2022-12-28T02:21:25.131Z,100661.27
2022-12-28T02:24:17.757Z,100663.14
2022-12-28T02:27:01.988Z,100657.59
2022-12-28T02:29:55.328Z,100660.34
2022-12-28T02:32:41.695Z,100656.80
2022-12-28T02:35:18.777Z,100655.27
2022-12-28T02:37:54.923Z,100652.77
2022-12-28T02:40:34.121Z,100649.17
2022-12-28T02:43:07.011Z,100652.29
2022-12-28T02:45:59.467Z,100647.95
2022-12-28T02:48:59.756Z,100646.94
2022-12-28T02:51:49.045Z,100641.58
2022-12-28T02:55:18.867Z,100639.95
2022-12-28T02:58:16.045Z,100631.52
2022-12-28T03:01:01.376Z,100634.88
2022-12-28T03:03:40.839Z,100631.85
2022-12-28T03:06:39.602Z,100624.98
2022-12-28T03:09:18.915Z,100616.36
2022-12-28T03:12:01.987Z,100610.35
2022-12-28T03:14:42.193Z,100614.15
2022-12-28T03:17:33.212Z,100608.59
2022-12-28T03:20:27.617Z,100610.33
2022-12-28T03:23:23.263Z,100608.22
2022-12-28T03:26:16.154Z,100607.52
2022-12-28T03:29:09.255Z,100604.20
2022-12-28T03:31:44.771Z,100611.80
2022-12-28T03:34:18.836Z,100615.07
2022-12-28T03:37:00.581Z,100611.75
2022-12-28T03:39:46.416Z,100611.10
2022-12-28T03:42:44.652Z,100610.42
2022-12-28T03:45:45.384Z,100619.63
2022-12-28T03:48:16.532Z,100614.80
2022-12-28T03:50:51.667Z,100616.21
2022-12-28T03:53:25.627Z,100615.16
2022-12-28T03:56:11.041Z,100610.60
2022-12-28T03:58:43.917Z,100602.92
2022-12-28T04:01:16.902Z,100601.33
2022-12-28T04:03:49.789Z,100599.73
2022-12-28T04:06:22.908Z,100593.11
2022-12-28T04:08:55.277Z,100586.55
2022-12-28T04:11:33.463Z,100582.39
2022-12-28T04:14:10.896Z,100581.59
2022-12-28T04:16:45.478Z,100578.41
2022-12-28T04:19:20.589Z,100579.27
2022-12-28T04:21:53.331Z,100580.42
2022-12-28T04:24:25.950Z,100578.68
2022-12-28T04:26:59.244Z,100578.23
2022-12-28T04:29:31.646Z,100587.33
2022-12-28T04:32:13.027Z,100591.45
2022-12-28T04:34:48.741Z,100589.27
2022-12-28T04:37:22.740Z,100587.06
2022-12-28T04:39:57.296Z,100586.52
2022-12-28T04:42:29.978Z,100576.73
2022-12-28T04:45:02.319Z,100574.39
2022-12-28T04:47:34.644Z,100578.50
2022-12-28T04:50:07.728Z,100580.75
2022-12-28T04:52:40.036Z,100585.52
2022-12-28T04:55:32.903Z,100590.45
2022-12-28T04:58:07.017Z,100585.80
2022-12-28T05:00:39.506Z,100591.38
2022-12-28T05:03:11.890Z,100591.36
2022-12-28T05:05:45.249Z,100586.85
2022-12-28T05:08:17.635Z,100587.09
2022-12-28T05:10:49.960Z,100573.36
2022-12-28T05:13:22.310Z,100565.30
2022-12-28T05:15:54.836Z,100553.48
2022-12-28T05:18:27.284Z,100553.92
2022-12-28T05:21:04.033Z,100545.67
2022-12-28T05:23:38.468Z,100533.15
2022-12-28T05:26:14.807Z,100525.77
2022-12-28T05:28:47.328Z,100520.60
2022-12-28T05:31:23.422Z,100516.14
2022-12-28T05:33:56.393Z,100512.41
2022-12-28T05:36:30.099Z,100512.19
2022-12-28T05:39:02.598Z,100510.76
2022-12-28T05:41:35.012Z,100511.25
2022-12-28T05:44:07.891Z,100510.11
2022-12-28T05:46:40.307Z,100501.86
2022-12-28T05:49:12.661Z,100499.70
2022-12-28T05:51:45.027Z,100498.52
2022-12-28T05:54:17.401Z,100497.26
2022-12-28T05:56:53.183Z,100489.38
2022-12-28T05:59:25.499Z,100490.80
2022-12-28T06:01:58.026Z,100483.95
2022-12-28T06:04:30.533Z,100484.96
2022-12-28T06:07:03.038Z,100479.10
2022-12-28T06:09:35.686Z,100482.37
2022-12-28T06:12:10.134Z,100487.31
2022-12-28T06:14:42.555Z,100484.70
2022-12-28T06:17:14.884Z,100483.05
2022-12-28T06:19:47.303Z,100477.80
2022-12-28T06:22:19.649Z,100477.20
2022-12-28T06:24:52.053Z,100470.33
2022-12-28T06:27:24.420Z,100462.20
2022-12-28T06:29:56.765Z,100467.16
2022-12-28T06:32:29.152Z,100470.95
2022-12-28T06:35:02.717Z,100475.86
2022-12-28T06:37:35.090Z,100478.20
2022-12-28T06:40:08.796Z,100474.19
2022-12-28T06:42:41.140Z,100475.02
2022-12-28T06:45:13.943Z,100471.58
2022-12-28T06:47:46.279Z,100466.23
2022-12-28T06:50:18.746Z,100467.30
2022-12-28T06:52:51.119Z,100463.75
2022-12-28T06:55:23.493Z,100455.41
2022-12-28T06:57:56.455Z,100447.96
2022-12-28T07:00:28.904Z,100449.73
2022-12-28T07:03:01.569Z,100443.30
2022-12-28T07:05:35.867Z,100437.41
2022-12-28T07:08:12.485Z,100437.31
2022-12-28T07:10:45.442Z,100440.71
2022-12-28T07:13:18.559Z,100442.27
2022-12-28T07:15:53.176Z,100444.27
2022-12-28T07:18:25.561Z,100447.77
2022-12-28T07:21:03.610Z,100446.03
2022-12-28T07:23:36.057Z,100441.27
2022-12-28T07:26:11.142Z,100437.59
2022-12-28T07:28:45.637Z,100433.81
2022-12-28T07:31:20.301Z,100432.30
2022-12-28T07:33:55.673Z,100432.57
2022-12-28T07:36:30.238Z,100437.98
2022-12-28T07:39:03.247Z,100436.92
2022-12-28T07:41:37.286Z,100430.42
2022-12-28T07:44:11.079Z,100427.30
2022-12-28T07:46:43.438Z,100431.38
2022-12-28T07:49:15.790Z,100434.81
2022-12-28T07:51:49.161Z,100424.91
2022-12-28T07:54:21.606Z,100423.39
2022-12-28T07:56:54.084Z,100419.12
2022-12-28T07:59:30.939Z,100414.88
2022-12-28T08:02:03.832Z,100407.20
2022-12-28T08:04:36.258Z,100408.30
2022-12-28T08:07:08.619Z,100413.64
2022-12-28T08:09:40.914Z,100415.33
2022-12-28T08:12:13.235Z,100416.41
2022-12-28T08:14:45.629Z,100419.15
2022-12-28T08:17:21.245Z,100408.53
2022-12-28T08:19:55.597Z,100404.72
2022-12-28T08:22:28.205Z,100406.87
2022-12-28T08:25:00.555Z,100406.55
2022-12-28T08:27:38.326Z,100410.55
2022-12-28T08:30:14.937Z,100404.96
2022-12-28T08:32:47.289Z,100400.67
2022-12-28T08:35:19.774Z,100396.27
2022-12-28T08:37:52.172Z,100390.23
2022-12-28T08:40:29.933Z,100387.20
2022-12-28T08:43:02.775Z,100377.52
2022-12-28T08:45:35.128Z,100376.85
2022-12-28T08:48:08.320Z,100367.32
2022-12-28T08:50:40.645Z,100368.13
2022-12-28T08:53:13.248Z,100364.92
2022-12-28T08:55:45.670Z,100362.25
2022-12-28T08:58:18.017Z,100361.23
2022-12-28T09:00:50.336Z,100362.46
2022-12-28T09:03:22.746Z,100358.27
2022-12-28T09:05:55.162Z,100358.34
2022-12-28T09:08:27.561Z,100357.08
2022-12-28T09:11:03.900Z,100356.81
2022-12-28T09:13:37.250Z,100358.02
2022-12-28T09:16:12.078Z,100357.26
2022-12-28T09:18:45.983Z,100353.67
2022-12-28T09:21:21.099Z,100345.66
2022-12-28T09:23:53.549Z,100342.45
2022-12-28T09:26:28.283Z,100341.09
2022-12-28T09:29:02.443Z,100337.58
2022-12-28T09:31:37.416Z,100339.83
2022-12-28T09:37:02.011Z,100328.86
2022-12-28T09:39:34.458Z,100326.10
2022-12-28T09:42:13.160Z,100320.29
2022-12-28T09:44:56.106Z,100316.42
2022-12-28T09:47:34.986Z,100304.85
2022-12-28T09:50:30.381Z,100301.24
2022-12-28T09:53:36.587Z,100296.65
2022-12-28T09:56:24.371Z,100295.82
2022-12-28T09:58:58.175Z,100289.55
2022-12-28T10:01:30.790Z,100287.80
2022-12-28T10:04:04.228Z,100285.77
2022-12-28T10:06:38.248Z,100283.86
2022-12-28T10:09:23.518Z,100284.98
2022-12-28T10:11:56.579Z,100277.77
2022-12-28T10:14:33.534Z,100274.54
2022-12-28T10:17:07.839Z,100267.56
2022-12-28T10:19:40.394Z,100263.71
2022-12-28T10:22:17.311Z,100260.80
2022-12-28T10:24:50.094Z,100251.08
2022-12-28T10:27:25.027Z,100245.85
2022-12-28T10:30:00.497Z,100244.67
2022-12-28T10:32:51.841Z,100239.52
2022-12-28T10:35:29.869Z,100230.54
2022-12-28T10:38:07.613Z,100219.90
2022-12-28T10:40:41.209Z,100222.35
2022-12-28T10:43:21.300Z,100214.19
2022-12-28T10:45:54.240Z,100212.77
2022-12-28T10:48:30.583Z,100203.20
2022-12-28T10:51:12.935Z,100196.89
2022-12-28T10:53:48.249Z,100188.39
2022-12-28T10:56:28.602Z,100178.74
2022-12-28T10:59:24.565Z,100165.67
2022-12-28T11:02:14.911Z,100159.67
2022-12-28T11:05:00.669Z,100154.30
2022-12-28T11:07:36.369Z,100148.73
2022-12-28T11:10:28.994Z,100145.23
2022-12-28T11:13:02.748Z,100141.70
2022-12-28T11:15:35.994Z,100138.05
2022-12-28T11:18:17.769Z,100134.91
2022-12-28T11:20:52.564Z,100118.43
2022-12-28T11:23:31.610Z,100123.23
2022-12-28T11:26:04.380Z,100111.70
2022-12-28T11:28:36.724Z,100107.77
2022-12-28T11:31:15.738Z,100099.30
2022-12-28T11:33:50.023Z,100097.52
2022-12-28T11:36:25.336Z,100097.61
2022-12-28T11:38:58.733Z,100098.29
2022-12-28T11:42:19.383Z,100099.33
2022-12-28T11:44:56.931Z,100093.58
2022-12-28T11:47:34.244Z,100092.05
2022-12-28T11:50:50.887Z,100091.94
2022-12-28T11:53:45.527Z,100089.20
2022-12-28T11:56:19.437Z,100083.55
2022-12-28T11:59:05.085Z,100084.73
2022-12-28T12:01:52.291Z,100086.48
2022-12-28T12:04:33.356Z,100077.46
2022-12-28T12:07:45.896Z,100072.45
2022-12-28T12:10:30.941Z,100062.39
2022-12-28T12:13:20.538Z,100054.98
2022-12-28T12:15:56.185Z,100049.16
2022-12-28T12:18:31.198Z,100042.96
2022-12-28T12:21:13.292Z,100037.41
2022-12-28T12:23:53.193Z,100036.48
2022-12-28T12:26:34.831Z,100028.83
2022-12-28T12:29:16.213Z,100022.16
2022-12-28T12:31:52.507Z,100018.92
2022-12-28T12:34:29.750Z,100012.45
2022-12-28T12:37:29.045Z,100011.36
2022-12-28T12:40:25.614Z,100012.56
2022-12-28T12:43:15.573Z,100014.76
2022-12-28T12:45:57.454Z,100012.85
2022-12-28T12:48:55.647Z,100015.34
2022-12-28T12:51:33.529Z,100008.39
2022-12-28T12:54:23.337Z,100008.47
2022-12-28T12:56:59.801Z,100005.02
2022-12-28T12:59:50.459Z,100001.73
2022-12-28T13:02:58.280Z,99999.52
2022-12-28T13:05:32.918Z,99989.41
2022-12-28T13:08:06.743Z,99984.33
2022-12-28T13:10:44.696Z,99986.65
2022-12-28T13:13:25.592Z,99983.34
2022-12-28T13:16:03.456Z,99980.55
2022-12-28T13:18:45.019Z,99979.68
2022-12-28T13:21:22.346Z,99976.14
2022-12-28T13:23:55.496Z,99972.21
2022-12-28T13:26:30.536Z,99968.00
2022-12-28T13:29:04.847Z,99967.48
2022-12-28T13:31:39.877Z,99968.59
2022-12-28T13:34:20.776Z,99971.65
2022-12-28T13:36:56.717Z,99964.52
2022-12-28T13:39:33.053Z,99959.86
2022-12-28T13:42:15.363Z,99955.77
2022-12-28T13:44:50.981Z,99950.43
2022-12-28T13:47:27.640Z,99950.84
2022-12-28T13:50:04.711Z,99945.57
2022-12-28T13:52:42.946Z,99948.33
2022-12-28T13:55:18.752Z,99946.13
2022-12-28T13:57:59.724Z,99946.30
2022-12-28T14:00:35.223Z,99945.43
2022-12-28T14:03:07.726Z,99943.44
2022-12-28T14:05:43.543Z,99941.45
2022-12-28T14:08:17.025Z,99937.20
2022-12-28T14:10:51.537Z,99929.61
2022-12-28T14:13:25.190Z,99924.31
2022-12-28T14:15:57.798Z,99916.17
2022-12-28T14:18:31.563Z,99910.13
2022-12-28T14:21:06.407Z,99910.27
2022-12-28T14:23:40.560Z,99911.38
2022-12-28T14:26:22.337Z,99906.92
2022-12-28T14:28:56.361Z,99905.91
2022-12-28T14:31:30.942Z,99901.91
2022-12-28T14:34:05.895Z,99905.44
2022-12-28T14:36:43.414Z,99904.67
2022-12-28T14:39:27.621Z,99905.29
2022-12-28T14:42:00.729Z,99895.54
2022-12-28T14:44:34.766Z,99899.27
2022-12-28T14:47:37.066Z,99896.40
2022-12-28T14:50:22.418Z,99891.23
2022-12-28T14:53:08.835Z,99891.06
2022-12-28T14:55:55.196Z,99887.10
2022-12-28T14:58:31.654Z,99887.88
2022-12-28T15:01:07.329Z,99886.11
2022-12-28T15:03:54.179Z,99887.57
2022-12-28T15:06:30.498Z,99886.41
2022-12-28T15:09:06.519Z,99880.10
2022-12-28T15:11:39.062Z,99880.72
2022-12-28T15:14:11.509Z,99885.40
2022-12-28T15:16:43.963Z,99887.28
2022-12-28T15:19:16.402Z,99881.77
2022-12-28T15:21:48.982Z,99881.58
2022-12-28T15:24:23.703Z,99885.51
2022-12-28T15:26:57.596Z,99888.04
2022-12-28T15:32:22.485Z,99886.64
2022-12-28T15:34:54.867Z,99883.65
2022-12-28T15:37:27.203Z,99879.95
2022-12-28T15:39:59.707Z,99877.19
2022-12-28T15:42:38.134Z,99877.92
2022-12-28T15:45:13.478Z,99870.20
2022-12-28T15:47:45.890Z,99866.52
2022-12-28T15:50:18.561Z,99859.05
2022-12-28T15:52:50.993Z,99857.94
2022-12-28T15:55:23.343Z,99857.68
2022-12-28T15:57:55.698Z,99858.89
2022-12-28T16:00:28.087Z,99864.56
2022-12-28T16:03:00.541Z,99861.50
2022-12-28T16:05:33.684Z,99856.44
2022-12-28T16:08:06.360Z,99854.11
2022-12-28T16:10:38.681Z,99850.48
2022-12-28T16:13:11.091Z,99848.02
2022-12-28T16:15:43.457Z,99847.56
2022-12-28T16:18:15.851Z,99840.98
2022-12-28T16:20:49.068Z,99841.33
2022-12-28T16:23:21.442Z,99837.61
2022-12-28T16:25:54.044Z,99833.52
2022-12-28T16:28:26.449Z,99836.42
2022-12-28T16:30:59.639Z,99838.48
2022-12-28T16:33:32.318Z,99838.04
2022-12-28T16:36:12.047Z,99836.06
2022-12-28T16:38:44.487Z,99835.75
2022-12-28T16:41:18.146Z,99839.30
2022-12-28T16:43:51.428Z,99845.92
2022-12-28T16:46:23.867Z,99844.52
2022-12-28T16:48:56.323Z,99848.33
2022-12-28T16:51:28.841Z,99838.93
2022-12-28T16:54:01.232Z,99835.80
2022-12-28T16:56:33.633Z,99830.54
2022-12-28T16:59:05.952Z,99825.06
2022-12-28T17:01:38.551Z,99829.59
2022-12-28T17:04:11.265Z,99831.53
2022-12-28T17:06:46.591Z,99830.09
2022-12-28T17:09:19.712Z,99829.59
2022-12-28T17:11:52.705Z,99825.33
2022-12-28T17:14:37.077Z,99822.61
2022-12-28T17:17:10.242Z,99818.41
2022-12-28T17:19:42.494Z,99814.20
2022-12-28T17:22:14.976Z,99813.44
2022-12-28T17:24:47.378Z,99814.14
2022-12-28T17:27:20.051Z,99808.83
2022-12-28T17:29:52.459Z,99802.30
2022-12-28T17:32:24.856Z,99797.90
2022-12-28T17:34:57.327Z,99796.38
2022-12-28T17:37:29.821Z,99802.62
2022-12-28T17:40:02.206Z,99804.02
2022-12-28T17:42:34.573Z,99802.76
2022-12-28T17:45:11.743Z,99798.98
2022-12-28T17:47:44.617Z,99794.02
2022-12-28T17:50:18.234Z,99795.17
2022-12-28T17:52:50.525Z,99795.29
2022-12-28T17:55:22.843Z,99795.61
2022-12-28T17:57:55.469Z,99799.27
2022-12-28T18:00:27.863Z,99798.52
2022-12-28T18:03:00.790Z,99795.63
2022-12-28T18:05:35.300Z,99788.08
2022-12-28T18:08:08.057Z,99792.80
2022-12-28T18:10:40.509Z,99789.77
2022-12-28T18:13:13.371Z,99792.77
2022-12-28T18:15:47.177Z,99794.35
2022-12-28T18:18:20.419Z,99801.08
2022-12-28T18:21:00.786Z,99795.84
2022-12-28T18:23:34.431Z,99794.70
2022-12-28T18:26:08.800Z,99795.34
2022-12-28T18:28:41.311Z,99792.18
2022-12-28T18:31:13.947Z,99787.76
2022-12-28T18:54:30.938Z,99780.15
2022-12-28T18:57:03.310Z,99777.65
2022-12-28T18:59:35.767Z,99774.56
2022-12-28T19:02:15.938Z,99771.23
2022-12-28T19:04:52.990Z,99767.62
2022-12-28T19:07:25.683Z,99761.66
2022-12-28T19:10:14.061Z,99759.96
2022-12-28T19:12:47.041Z,99759.90
2022-12-28T19:15:19.826Z,99761.68
2022-12-28T19:17:52.198Z,99760.11
2022-12-28T19:20:24.828Z,99763.48
2022-12-28T19:22:57.225Z,99762.25
2022-12-28T19:25:29.625Z,99767.30
2022-12-28T19:28:02.051Z,99772.81
2022-12-28T19:30:34.446Z,99774.15
2022-12-28T19:33:06.952Z,99771.28
2022-12-28T19:35:39.320Z,99767.88
2022-12-28T19:38:11.618Z,99763.91
2022-12-28T19:40:43.941Z,99767.24
2022-12-28T19:43:16.212Z,99763.66
2022-12-28T19:45:48.671Z,99769.55
2022-12-28T19:48:21.034Z,99769.84
2022-12-28T19:50:53.332Z,99770.37
2022-12-28T19:53:25.681Z,99766.91
2022-12-28T19:56:04.612Z,99772.59
2022-12-28T19:58:39.183Z,99773.17
2022-12-28T20:01:13.502Z,99769.82
2022-12-28T20:03:46.858Z,99773.77
2022-12-28T20:06:22.346Z,99772.38
2022-12-28T20:08:56.529Z,99771.14
2022-12-28T20:11:29.706Z,99768.97
2022-12-28T20:14:03.660Z,99771.83
2022-12-28T20:16:37.414Z,99768.80
2022-12-28T20:19:11.043Z,99772.10
2022-12-28T20:21:43.565Z,99763.42
2022-12-28T20:24:17.586Z,99763.52
2022-12-28T20:26:50.096Z,99764.98
2022-12-28T20:29:22.372Z,99764.51
2022-12-28T20:31:55.166Z,99763.43
2022-12-28T20:34:27.702Z,99767.70
2022-12-28T20:37:00.186Z,99765.42
2022-12-28T20:39:32.583Z,99761.50
2022-12-28T20:42:22.881Z,99757.42
2022-12-28T20:44:57.658Z,99754.86
2022-12-28T20:47:30.079Z,99757.95
2022-12-28T20:50:04.045Z,99755.69
2022-12-28T20:52:36.362Z,99752.42
2022-12-28T20:55:09.651Z,99753.02
2022-12-28T20:57:41.981Z,99750.41
2022-12-28T21:00:16.343Z,99750.81
2022-12-28T21:02:49.309Z,99755.36
2022-12-28T21:05:21.757Z,99754.83
2022-12-28T21:07:54.229Z,99754.48
2022-12-28T21:10:26.770Z,99761.07
2022-12-28T21:12:59.425Z,99759.47
2022-12-28T21:15:31.876Z,99760.64
2022-12-28T21:18:04.535Z,99759.54
2022-12-28T21:20:39.192Z,99759.51
2022-12-28T21:23:11.855Z,99756.54
2022-12-28T21:25:44.248Z,99758.85
2022-12-28T21:28:16.763Z,99758.31
2022-12-28T21:30:55.938Z,99753.77
2022-12-28T21:33:28.386Z,99752.70
2022-12-28T21:36:02.811Z,99753.59
2022-12-28T21:38:37.896Z,99754.90
2022-12-28T21:41:09.856Z,99756.66
2022-12-28T21:43:42.745Z,99754.59
2022-12-28T21:46:16.084Z,99753.23
2022-12-28T21:48:48.565Z,99751.09
2022-12-28T21:51:35.331Z,99746.33
2022-12-28T21:54:11.384Z,99745.79
2022-12-28T21:56:45.469Z,99741.98
2022-12-28T21:59:17.846Z,99743.53
2022-12-28T22:02:07.903Z,99740.33
2022-12-28T22:05:02.437Z,99740.48
2022-12-28T22:07:37.305Z,99736.64
2022-12-28T22:10:28.119Z,99735.03
2022-12-28T22:13:00.537Z,99734.79
2022-12-28T22:15:50.863Z,99730.52
2022-12-28T22:18:52.656Z,99729.13
2022-12-28T22:21:17.437Z,99727.57
2022-12-28T22:23:49.862Z,99725.23
2022-12-28T22:26:22.340Z,99722.86
2022-12-28T22:28:54.613Z,99723.43
2022-12-28T22:31:26.940Z,99722.88
2022-12-28T22:34:03.371Z,99716.94
2022-12-28T22:36:39.075Z,99708.39
2022-12-28T22:39:11.342Z,99701.81
2022-12-28T22:41:43.690Z,99697.83
2022-12-28T22:44:16.031Z,99697.60
2022-12-28T22:46:48.463Z,99692.22
2022-12-28T22:49:21.085Z,99689.52
2022-12-28T22:51:53.444Z,99684.33
2022-12-28T22:54:26.028Z,99684.74
2022-12-28T22:56:58.327Z,99685.74
2022-12-28T22:59:30.787Z,99689.63
2022-12-28T23:02:03.254Z,99688.29
2022-12-28T23:04:35.923Z,99685.77
2022-12-28T23:07:08.367Z,99683.58
2022-12-28T23:09:40.740Z,99679.88
2022-12-28T23:12:13.067Z,99679.28
2022-12-28T23:15:03.079Z,99676.74
2022-12-28T23:17:35.453Z,99677.95
2022-12-28T23:20:26.611Z,99675.80
2022-12-28T23:23:17.008Z,99676.29
2022-12-28T23:26:07.456Z,99671.05
2022-12-28T23:28:39.756Z,99665.32
2022-12-28T23:31:11.990Z,99659.21
2022-12-28T23:33:44.342Z,99657.97
2022-12-28T23:36:16.672Z,99656.54
2022-12-28T23:38:50.686Z,99651.14
2022-12-28T23:41:40.637Z,99650.12
2022-12-28T23:44:12.933Z,99651.45
2022-12-28T23:46:45.646Z,99649.35
2022-12-28T23:49:18.933Z,99647.34
2022-12-28T23:51:51.558Z,99647.27
2022-12-28T23:54:24.012Z,99644.10
2022-12-28T23:56:56.358Z,99639.55
2022-12-28T23:59:28.712Z,99635.52
